Watertown, Ohio
Current Conditions -  °F | °C
As of 6:53 PM on Wednesday 28 Jan 2015 (Local Time) from KPKB Reporting Station
Clear Clear  
Wind Chill: -3°   Ceiling: Unl
Heat Index: -3°   Visibility: 10mi
Dew Point: -11°   Wind: 3mph
Humidity: 55%   Direction: 120°ESE
Pressure: 30.34"   Gusts: NA
Location:  39.47°N, 81.63°W
Report Text: KPKB 282353Z 12003KT 10SM CLR M03/M11 A3034 RMK AO2 SLP287 T10331111 11011 21039 58006
Loading
Personal Weather Stations






























Interactive Weather Map New forecast layout! Learn more

10-Day Weather Forecast

Advertisements
Track Severe Weather on mobile